Portada
METAR-TAF:

METAR-TAF

Aeropuertos :

Aeropuerto Internacional Marcos A. Gelabert

Ciudad de Panamá, Panamá

latitud: 08-59N, longitud: 079-31W, altitud: 13 m

Observación

El informe se hizo hace 8 horas y 22 minutos, a las 03:00 UTC
Viento 2 kt con dirección variable
Temperatura 27°C
Humedad 89%
Presión 1011 hPa
Visibilidad 10 km o más
Escasas nubes a una altura de 2000 ft

METAR: MPMG 160300Z VRB02KT 9999 FEW020 27/25 Q1011 NOSIG

Hora: 06:22 (11:22 UTC)

Pronóstico

El informe se hizo hace 12 horas y 22 minutos, a las 23:00 UTC
Pronóstico válido del 16 a las 00 UTC al 16 a las 12 UTC
Viento 5 kt del noroeste
Visibilidad 10 km o más
Nubes dispersas a una altura de 1800 ft, Cumulonimbus.
Nubes dispersas a una altura de 9000 ft
Temporalmente
del 16 a las 06 UTC al 16 a las 10 UTC
Viento kt del norte

TAF: MPMG 152300Z 1600/1612 31005KT 9999 SCT018CB SCT090 TEMPO 1606/1610 00000KT

Observaciones y pronósticos meteorológicos de más de 4000 aeropuertos (mensajes METAR y TAF).

Los puntos amarillos y rojos representan las estaciones disponibles.

Ponga el ratón en el punto deseado para ver el nombre de la estación.

Haga clic para ver las observaciones y los pronósticos meteorológicos.

Para cambiar el mapa : haga clic en los botones verdes con una cruz de color negro para hacer un zoom, en el botón verde con un guión para alejar o en las flechas verdes para mapas adyacentes.


METAR-TAF: